Time;durP1;ratioP1;P1;durP2;ratioP2;P2;SDS_P1;SDS_P2;PMS_P1;PMS_P2;Temp;Humidity;BMP_temperature;BMP_pressure;BME280_temperature;BME280_humidity;BME280_pressure;Samples;Min_cycle;Max_cycle;Signal;HPM_P1;HPM_P2
2020/12/10 00:00:22;;;;;;;4.43;4.03;;;8.90;96.70;;;;;;4999529;28;20033;-86
2020/12/10 00:02:50;;;;;;;5.30;4.20;;;8.90;96.70;;;;;;5002877;28;20041;-85
2020/12/10 00:05:18;;;;;;;5.10;3.85;;;8.90;96.70;;;;;;5013695;28;20097;-86
2020/12/10 00:07:45;;;;;;;5.93;4.10;;;9.00;96.70;;;;;;5013492;28;20038;-86
2020/12/10 00:10:15;;;;;;;5.75;4.63;;;9.00;96.70;;;;;;5003368;28;20084;-86
2020/12/10 00:12:43;;;;;;;5.03;4.13;;;9.00;96.70;;;;;;5004772;28;20050;-86
2020/12/10 00:15:12;;;;;;;5.63;4.28;;;9.00;96.70;;;;;;5005700;28;20038;-86
2020/12/10 00:17:39;;;;;;;7.00;4.57;;;9.00;96.70;;;;;;5003861;28;20049;-86
2020/12/10 00:20:09;;;;;;;5.22;4.10;;;9.10;96.70;;;;;;5005732;28;20614;-86
2020/12/10 00:22:37;;;;;;;5.57;4.50;;;9.10;96.70;;;;;;5003314;28;20060;-86
2020/12/10 00:25:05;;;;;;;5.53;4.30;;;9.10;96.70;;;;;;5005550;28;20331;-85
2020/12/10 00:27:33;;;;;;;6.13;4.63;;;9.10;96.70;;;;;;5019028;28;20074;-85
2020/12/10 00:30:01;;;;;;;5.85;4.10;;;9.20;96.70;;;;;;5003758;28;20100;-86
2020/12/10 00:32:28;;;;;;;6.63;4.47;;;9.20;96.70;;;;;;5017343;28;20045;-85
2020/12/10 00:34:55;;;;;;;4.93;3.83;;;9.30;96.70;;;;;;4977306;28;20044;-85
2020/12/10 00:37:24;;;;;;;5.85;5.15;;;9.30;96.70;;;;;;4989002;28;20042;-84
2020/12/10 00:39:52;;;;;;;5.32;4.47;;;9.30;96.70;;;;;;5005636;28;20527;-86
2020/12/10 00:42:19;;;;;;;6.93;4.05;;;9.30;96.70;;;;;;5005589;28;20042;-85
2020/12/10 00:44:47;;;;;;;5.70;4.47;;;9.30;96.70;;;;;;5004922;28;20420;-85
2020/12/10 00:47:16;;;;;;;4.65;3.85;;;9.30;96.70;;;;;;5005782;28;20666;-86
2020/12/10 00:49:46;;;;;;;6.40;4.38;;;9.30;96.70;;;;;;5004172;28;20037;-86
2020/12/10 00:52:15;;;;;;;4.30;3.80;;;9.30;96.70;;;;;;5003502;28;20137;-86
2020/12/10 00:54:43;;;;;;;4.55;3.88;;;9.20;96.70;;;;;;4988810;28;20409;-86
2020/12/10 00:57:15;;;;;;;5.63;3.80;;;9.30;96.70;;;;;;5006077;28;20046;-86
2020/12/10 00:59:42;;;;;;;5.05;4.00;;;9.20;96.70;;;;;;5003466;28;20443;-86
2020/12/10 01:02:10;;;;;;;8.25;5.45;;;9.20;96.70;;;;;;5004348;28;20060;-86
2020/12/10 01:04:37;;;;;;;13.73;8.55;;;9.20;96.70;;;;;;4986073;28;20046;-86
2020/12/10 01:07:04;;;;;;;7.45;5.68;;;9.30;96.70;;;;;;4988757;28;20037;-86
2020/12/10 01:09:31;;;;;;;6.70;5.00;;;9.20;96.70;;;;;;4997735;28;20102;-86
2020/12/10 01:12:03;;;;;;;5.60;4.25;;;9.20;96.70;;;;;;5003816;28;20045;-86
2020/12/10 01:14:30;;;;;;;6.35;4.30;;;9.20;96.70;;;;;;5002945;28;20050;-86
2020/12/10 01:16:58;;;;;;;4.15;3.65;;;9.20;96.70;;;;;;4986694;28;20094;-87
2020/12/10 01:19:25;;;;;;;4.40;3.97;;;9.20;96.70;;;;;;5002049;28;20045;-86
2020/12/10 01:21:52;;;;;;;4.35;3.60;;;9.20;96.70;;;;;;4988267;28;20042;-86
2020/12/10 01:24:19;;;;;;;4.35;3.42;;;9.20;96.70;;;;;;5004089;28;20586;-86
2020/12/10 01:26:47;;;;;;;7.78;3.67;;;9.20;96.70;;;;;;5003682;28;20594;-86
2020/12/10 01:29:15;;;;;;;4.88;3.30;;;9.20;96.70;;;;;;5003998;28;20046;-86
2020/12/10 01:31:42;;;;;;;4.25;3.17;;;9.20;96.70;;;;;;5002936;28;20049;-86
2020/12/10 01:34:09;;;;;;;6.03;3.90;;;9.20;96.70;;;;;;4985828;28;20507;-86
2020/12/10 01:36:36;;;;;;;3.88;3.47;;;9.20;96.70;;;;;;4987159;28;20038;-86
2020/12/10 01:39:03;;;;;;;4.32;3.25;;;9.20;96.70;;;;;;5003197;28;20096;-86
2020/12/10 01:41:33;;;;;;;4.05;3.40;;;9.20;96.70;;;;;;5003250;28;20400;-86
2020/12/10 01:44:03;;;;;;;4.78;3.45;;;9.20;96.70;;;;;;4983502;28;20042;-86
2020/12/10 01:46:31;;;;;;;4.22;3.45;;;9.20;96.70;;;;;;5004121;28;20034;-86
2020/12/10 01:49:00;;;;;;;4.00;3.60;;;9.20;96.70;;;;;;5018382;28;20343;-86
2020/12/10 01:51:32;;;;;;;4.10;3.38;;;9.20;96.70;;;;;;5014544;28;20053;-86
2020/12/10 01:54:07;;;;;;;3.45;2.88;;;9.20;96.70;;;;;;5002258;28;20061;-88
2020/12/10 01:56:38;;;;;;;4.45;3.25;;;9.20;96.70;;;;;;4999356;28;20073;-88
2020/12/10 01:59:05;;;;;;;4.38;3.35;;;9.20;96.70;;;;;;5000841;28;20094;-88
2020/12/10 02:01:34;;;;;;;4.60;3.60;;;9.20;96.70;;;;;;5003122;28;20087;-87
2020/12/10 02:04:02;;;;;;;4.95;4.45;;;9.20;96.70;;;;;;5003505;28;20042;-87
2020/12/10 02:06:30;;;;;;;4.95;3.95;;;9.10;96.70;;;;;;5003292;28;20034;-88
2020/12/10 02:08:57;;;;;;;4.57;4.15;;;9.10;96.70;;;;;;4987312;28;20100;-88
2020/12/10 02:11:24;;;;;;;7.13;4.30;;;9.20;96.70;;;;;;5002805;28;20542;-88
2020/12/10 02:13:53;;;;;;;5.22;4.57;;;9.20;96.70;;;;;;5017638;28;20048;-88
2020/12/10 02:16:20;;;;;;;6.60;5.00;;;9.20;96.70;;;;;;4986932;28;20054;-87
2020/12/10 02:18:54;;;;;;;5.55;4.88;;;9.20;96.70;;;;;;5004592;28;20037;-88
2020/12/10 02:21:21;;;;;;;6.25;4.80;;;9.10;96.70;;;;;;4981705;28;20137;-88
2020/12/10 02:23:52;;;;;;;6.07;4.50;;;9.10;96.70;;;;;;5003544;28;20038;-89
2020/12/10 02:26:21;;;;;;;7.00;5.30;;;9.10;96.70;;;;;;5002027;28;20513;-89
2020/12/10 02:28:48;;;;;;;6.10;4.60;;;9.20;96.70;;;;;;5003055;28;20038;-88
2020/12/10 02:31:21;;;;;;;6.20;4.90;;;9.20;96.70;;;;;;5000970;28;20568;-87
2020/12/10 02:33:48;;;;;;;5.43;4.53;;;9.10;96.70;;;;;;5002717;28;20042;-88
2020/12/10 02:36:15;;;;;;;4.88;4.35;;;9.10;96.70;;;;;;5002522;28;20030;-88
2020/12/10 02:38:43;;;;;;;6.70;4.40;;;9.20;96.70;;;;;;5002815;28;20040;-88
2020/12/10 02:41:14;;;;;;;5.75;4.47;;;9.20;96.70;;;;;;5003626;28;20084;-88
2020/12/10 02:43:41;;;;;;;5.43;4.13;;;9.20;96.70;;;;;;5003051;28;20045;-87
2020/12/10 02:46:08;;;;;;;5.20;4.40;;;9.20;96.70;;;;;;5002664;28;20060;-87
2020/12/10 02:48:36;;;;;;;6.03;4.25;;;9.20;96.70;;;;;;5002661;28;20127;-87
2020/12/10 02:51:04;;;;;;;4.22;3.78;;;9.10;96.70;;;;;;5001695;28;20041;-88
2020/12/10 02:53:32;;;;;;;5.60;3.97;;;9.10;96.70;;;;;;4997079;28;20065;-88
2020/12/10 02:55:59;;;;;;;5.57;4.32;;;9.20;96.70;;;;;;5003214;28;20496;-88
2020/12/10 02:58:27;;;;;;;7.03;4.72;;;9.20;96.70;;;;;;5002966;28;20051;-88
2020/12/10 03:00:55;;;;;;;5.45;4.13;;;9.20;96.70;;;;;;5003828;28;20097;-87
2020/12/10 03:03:22;;;;;;;5.38;4.43;;;9.10;96.70;;;;;;4997235;28;20081;-87
2020/12/10 03:05:49;;;;;;;4.93;4.20;;;9.10;96.70;;;;;;5003500;28;20049;-89
2020/12/10 03:08:16;;;;;;;5.25;4.38;;;9.10;96.70;;;;;;4988355;28;20049;-88
2020/12/10 03:10:43;;;;;;;4.47;4.03;;;9.20;96.70;;;;;;4986280;28;20034;-89
2020/12/10 03:13:10;;;;;;;5.97;5.30;;;9.20;96.70;;;;;;4989812;28;20050;-89
2020/12/10 03:15:38;;;;;;;6.93;4.60;;;9.20;96.70;;;;;;5004030;28;20549;-88
2020/12/10 03:18:05;;;;;;;6.15;4.57;;;9.20;96.70;;;;;;4995699;28;20034;-88
2020/12/10 03:20:32;;;;;;;4.60;4.20;;;9.10;96.70;;;;;;5000986;28;20358;-88
2020/12/10 03:22:59;;;;;;;5.38;4.40;;;9.00;96.70;;;;;;5002944;28;20052;-88
2020/12/10 03:25:26;;;;;;;5.13;4.47;;;9.10;96.70;;;;;;5002057;28;20049;-88
2020/12/10 03:27:54;;;;;;;4.50;3.85;;;9.00;96.70;;;;;;4998556;28;20504;-88
2020/12/10 03:30:21;;;;;;;5.03;4.35;;;9.10;96.70;;;;;;4987342;28;20542;-89
2020/12/10 03:32:50;;;;;;;5.20;4.20;;;9.00;96.70;;;;;;5000386;28;20034;-88
2020/12/10 03:35:18;;;;;;;4.55;4.15;;;9.00;96.70;;;;;;5001943;28;20408;-87
2020/12/10 03:37:45;;;;;;;5.00;4.40;;;9.00;96.70;;;;;;5003317;28;20079;-87
2020/12/10 03:40:12;;;;;;;5.00;4.50;;;9.00;96.70;;;;;;5002001;28;20390;-86
2020/12/10 03:42:39;;;;;;;4.93;4.45;;;9.00;96.70;;;;;;4987385;28;20041;-88
2020/12/10 03:45:06;;;;;;;5.15;4.60;;;8.90;96.70;;;;;;5002402;28;20089;-88
2020/12/10 03:47:33;;;;;;;5.35;4.22;;;8.90;96.70;;;;;;4984170;28;20029;-88
2020/12/10 03:50:03;;;;;;;5.03;4.20;;;8.90;96.70;;;;;;5002430;28;20046;-87
2020/12/10 03:52:30;;;;;;;6.68;4.25;;;9.00;96.70;;;;;;5001124;28;20042;-88
2020/12/10 03:54:58;;;;;;;4.88;4.35;;;9.00;96.70;;;;;;5005092;28;20502;-88
2020/12/10 03:57:25;;;;;;;4.65;4.10;;;9.00;96.70;;;;;;5001849;28;20100;-88
2020/12/10 03:59:53;;;;;;;4.30;3.90;;;8.90;96.70;;;;;;5000759;28;20045;-88
2020/12/10 04:02:20;;;;;;;6.53;4.55;;;9.00;96.70;;;;;;4987100;28;20070;-88
2020/12/10 04:04:49;;;;;;;4.90;4.25;;;8.90;96.70;;;;;;4986185;28;20053;-88
2020/12/10 04:07:17;;;;;;;5.22;4.03;;;8.90;96.70;;;;;;4985279;28;20068;-87
2020/12/10 04:09:44;;;;;;;5.97;4.20;;;8.90;96.70;;;;;;5002567;28;20041;-87
2020/12/10 04:12:12;;;;;;;4.20;3.80;;;8.90;96.70;;;;;;5001889;28;20061;-88
2020/12/10 04:14:40;;;;;;;6.53;4.20;;;8.90;96.70;;;;;;5001204;28;20048;-87
2020/12/10 04:17:08;;;;;;;4.60;3.60;;;9.00;96.70;;;;;;4998363;28;20518;-87
2020/12/10 04:19:35;;;;;;;5.40;3.90;;;9.00;96.70;;;;;;5001194;28;20049;-87
2020/12/10 04:22:02;;;;;;;5.10;4.20;;;9.00;96.70;;;;;;4985927;28;20057;-86
2020/12/10 04:24:30;;;;;;;6.15;4.25;;;8.90;96.70;;;;;;4998864;28;20097;-86
2020/12/10 04:26:58;;;;;;;5.50;4.25;;;8.90;96.70;;;;;;4999748;28;20057;-86
2020/12/10 04:29:26;;;;;;;5.35;4.10;;;8.90;96.70;;;;;;4999885;28;20042;-86
2020/12/10 04:31:53;;;;;;;4.40;4.00;;;8.90;96.70;;;;;;4999698;28;20797;-86
2020/12/10 04:34:20;;;;;;;4.30;3.72;;;9.00;96.70;;;;;;5000476;28;20046;-84
2020/12/10 04:36:48;;;;;;;6.30;4.40;;;9.00;96.70;;;;;;5001799;28;20042;-86
2020/12/10 04:39:15;;;;;;;4.95;4.20;;;9.00;96.70;;;;;;5000628;28;20046;-86
2020/12/10 04:41:47;;;;;;;5.28;4.38;;;9.00;96.70;;;;;;5000831;28;20125;-86
2020/12/10 04:44:14;;;;;;;5.28;4.15;;;9.00;96.70;;;;;;5000687;28;20042;-86
2020/12/10 04:46:43;;;;;;;4.93;4.30;;;9.00;96.70;;;;;;5001433;28;20276;-87
2020/12/10 04:49:12;;;;;;;4.38;3.97;;;9.00;96.70;;;;;;5000914;28;20080;-86
2020/12/10 04:51:43;;;;;;;5.03;4.53;;;9.00;96.70;;;;;;4997406;28;20034;-86
2020/12/10 04:54:10;;;;;;;6.47;4.32;;;9.00;96.70;;;;;;4985917;28;20452;-86
2020/12/10 04:56:38;;;;;;;4.65;4.20;;;9.00;96.70;;;;;;5021414;28;20507;-86
2020/12/10 04:59:06;;;;;;;4.97;3.97;;;9.00;96.70;;;;;;4986944;28;20061;-85
2020/12/10 05:01:33;;;;;;;4.47;4.03;;;9.00;96.70;;;;;;4989825;28;20107;-86
2020/12/10 05:04:03;;;;;;;5.88;3.80;;;9.00;96.70;;;;;;5002862;28;20049;-86
2020/12/10 05:06:31;;;;;;;4.13;3.70;;;9.00;96.70;;;;;;5036912;28;20030;-86
2020/12/10 05:09:07;;;;;;;3.63;3.15;;;8.90;96.70;;;;;;5004406;28;20041;-86
2020/12/10 05:11:36;;;;;;;5.22;3.80;;;8.90;96.70;;;;;;5003199;28;20046;-87
2020/12/10 05:14:04;;;;;;;3.85;3.50;;;8.90;96.70;;;;;;4987220;28;20050;-86
2020/12/10 05:16:32;;;;;;;5.13;4.00;;;8.90;96.70;;;;;;5007394;28;20046;-86
2020/12/10 05:19:16;;;;;;;4.32;3.92;;;8.90;96.70;;;;;;4988143;28;20311;-87
2020/12/10 05:21:59;;;;;;;4.35;3.88;;;8.90;96.70;;;;;;5004652;28;20038;-86
2020/12/10 05:24:26;;;;;;;4.15;3.47;;;8.90;96.70;;;;;;5003161;28;20161;-87
2020/12/10 05:27:17;;;;;;;4.75;4.25;;;8.90;96.70;;;;;;4987236;28;20540;-87
2020/12/10 05:29:45;;;;;;;4.38;3.97;;;8.90;96.70;;;;;;5014137;28;20444;-86
2020/12/10 05:32:36;;;;;;;4.13;3.72;;;8.90;96.70;;;;;;5002808;28;20053;-87
2020/12/10 05:35:17;;;;;;;5.00;3.53;;;8.90;96.70;;;;;;5036725;28;20058;-86
2020/12/10 05:37:45;;;;;;;5.30;4.22;;;8.90;96.70;;;;;;4996746;28;20060;-86
2020/12/10 05:40:12;;;;;;;4.80;4.00;;;8.90;96.70;;;;;;5003124;28;20377;-86
2020/12/10 05:42:41;;;;;;;4.10;3.55;;;9.00;96.70;;;;;;5003386;28;20203;-87
2020/12/10 05:45:12;;;;;;;4.32;3.67;;;9.00;96.70;;;;;;5004131;28;20323;-84
2020/12/10 05:47:43;;;;;;;5.22;4.18;;;9.00;96.70;;;;;;5002961;28;20167;-82
2020/12/10 05:50:12;;;;;;;4.13;3.72;;;9.00;96.70;;;;;;5003472;28;20076;-87
2020/12/10 05:52:44;;;;;;;5.75;5.15;;;9.00;96.70;;;;;;4994207;28;20042;-88
2020/12/10 05:55:11;;;;;;;5.93;5.32;;;9.00;96.70;;;;;;5003385;28;20504;-88
2020/12/10 05:57:43;;;;;;;5.32;4.43;;;9.00;96.70;;;;;;5006084;28;20058;-87
2020/12/10 06:00:10;;;;;;;4.60;4.20;;;9.00;96.70;;;;;;5039574;28;20151;-86
2020/12/10 06:02:41;;;;;;;5.20;4.18;;;9.00;96.70;;;;;;5003727;28;20465;-87
2020/12/10 06:05:10;;;;;;;4.90;4.40;;;9.00;96.70;;;;;;5002612;28;20041;-87
2020/12/10 06:07:38;;;;;;;4.63;4.10;;;9.00;96.70;;;;;;4988494;28;20034;-89
2020/12/10 06:10:05;;;;;;;4.95;4.10;;;9.00;96.70;;;;;;5003330;28;20041;-88
2020/12/10 06:12:32;;;;;;;5.32;4.25;;;9.00;96.70;;;;;;5002797;28;20037;-87
2020/12/10 06:14:59;;;;;;;4.32;3.90;;;9.00;96.70;;;;;;5003233;28;20038;-89
2020/12/10 06:17:26;;;;;;;5.20;4.10;;;9.00;96.70;;;;;;5002996;28;20099;-88
2020/12/10 06:19:55;;;;;;;5.97;4.03;;;9.00;96.70;;;;;;5018622;28;20061;-88
2020/12/10 06:22:26;;;;;;;4.53;4.13;;;9.00;96.70;;;;;;4987471;28;20566;-88
2020/12/10 06:24:53;;;;;;;5.60;3.88;;;9.00;96.70;;;;;;4987681;28;20144;-88
2020/12/10 06:27:25;;;;;;;4.18;3.78;;;9.00;96.70;;;;;;5002955;28;20044;-87
2020/12/10 06:30:11;;;;;;;4.70;3.90;;;9.00;96.70;;;;;;5002964;28;20060;-88
2020/12/10 06:32:42;;;;;;;4.88;3.92;;;8.90;96.70;;;;;;4985324;28;20133;-88
2020/12/10 06:35:27;;;;;;;4.57;3.88;;;8.90;96.70;;;;;;4998915;28;20130;-88
2020/12/10 06:37:55;;;;;;;4.35;3.95;;;8.90;96.70;;;;;;4996638;28;20485;-88
2020/12/10 06:40:33;;;;;;;3.95;3.55;;;8.90;96.70;;;;;;4992392;28;20192;-87
2020/12/10 06:43:05;;;;;;;4.22;3.83;;;8.90;96.70;;;;;;4987322;28;20050;-87
2020/12/10 06:45:34;;;;;;;6.63;4.10;;;8.80;96.70;;;;;;4987199;28;20042;-88
2020/12/10 06:48:04;;;;;;;6.25;5.28;;;8.80;96.70;;;;;;5005122;28;20042;-88
2020/12/10 06:50:34;;;;;;;7.13;5.78;;;8.80;96.70;;;;;;5001617;28;20033;-87
2020/12/10 06:53:17;;;;;;;6.85;5.90;;;8.80;96.70;;;;;;5025452;28;20077;-88
2020/12/10 06:56:03;;;;;;;7.70;6.45;;;8.80;96.70;;;;;;5002830;28;20076;-88
2020/12/10 06:58:47;;;;;;;7.57;6.40;;;8.80;96.70;;;;;;5003202;28;20121;-85
2020/12/10 07:01:24;;;;;;;6.38;5.50;;;8.80;96.70;;;;;;5033923;28;20038;-89
2020/12/10 07:04:07;;;;;;;8.43;6.07;;;8.80;96.70;;;;;;5018476;28;21135;-89
2020/12/10 07:06:44;;;;;;;9.70;5.30;;;8.80;96.70;;;;;;5005016;28;20120;-89
2020/12/10 07:09:13;;;;;;;5.80;4.53;;;8.80;96.70;;;;;;5017488;28;20048;-91
2020/12/10 07:11:43;;;;;;;6.07;4.65;;;8.90;96.70;;;;;;5003936;28;20037;-88
2020/12/10 07:14:24;;;;;;;5.95;3.95;;;8.90;96.70;;;;;;5005041;28;20030;-85
2020/12/10 07:16:52;;;;;;;5.85;4.93;;;9.00;96.70;;;;;;5002910;28;20045;-83
2020/12/10 07:19:19;;;;;;;5.30;4.80;;;9.00;96.70;;;;;;5001474;28;20053;-85
2020/12/10 07:21:47;;;;;;;5.80;4.78;;;9.00;96.70;;;;;;5016802;28;20041;-84
2020/12/10 07:24:18;;;;;;;6.75;4.30;;;9.00;96.70;;;;;;4996784;28;20423;-87
2020/12/10 07:26:45;;;;;;;4.90;4.50;;;9.10;96.70;;;;;;5001532;28;20046;-87
2020/12/10 07:29:13;;;;;;;5.82;4.78;;;9.10;96.70;;;;;;5000855;28;20030;-87
2020/12/10 07:31:42;;;;;;;4.80;4.10;;;9.10;96.70;;;;;;5000170;28;20056;-87
2020/12/10 07:34:11;;;;;;;4.90;4.40;;;9.20;96.70;;;;;;5000509;28;20042;-88
2020/12/10 07:36:47;;;;;;;4.57;4.18;;;9.30;96.70;;;;;;4998216;28;20072;-87
2020/12/10 07:39:27;;;;;;;5.50;4.03;;;9.30;96.70;;;;;;5000101;28;20404;-87
2020/12/10 07:41:55;;;;;;;5.32;4.22;;;9.30;96.70;;;;;;4990894;28;20497;-87
2020/12/10 07:44:26;;;;;;;4.55;4.03;;;9.30;96.70;;;;;;5001485;28;20108;-87
2020/12/10 07:46:53;;;;;;;4.78;4.20;;;9.40;96.70;;;;;;5000190;28;20161;-87
2020/12/10 07:49:26;;;;;;;5.30;4.07;;;9.40;96.70;;;;;;4999195;28;20042;-86
2020/12/10 07:52:10;;;;;;;5.53;4.40;;;9.40;96.70;;;;;;5001895;28;20105;-86
2020/12/10 07:54:47;;;;;;;5.30;4.18;;;9.50;96.70;;;;;;5010227;28;20057;-87
2020/12/10 07:57:31;;;;;;;5.10;4.55;;;9.50;96.70;;;;;;5016624;28;20033;-88
2020/12/10 08:00:03;;;;;;;4.75;4.18;;;9.50;96.70;;;;;;5001763;28;20055;-87
2020/12/10 08:02:48;;;;;;;4.55;3.67;;;9.50;96.70;;;;;;5000309;28;20049;-87
2020/12/10 08:05:17;;;;;;;6.03;4.28;;;9.60;96.70;;;;;;5017395;28;20077;-87
2020/12/10 08:07:52;;;;;;;5.68;4.00;;;9.60;96.70;;;;;;4986251;28;20037;-87
2020/12/10 08:10:40;;;;;;;5.95;4.60;;;9.60;96.70;;;;;;5000730;28;20049;-87
2020/12/10 08:13:30;;;;;;;5.50;4.53;;;9.70;96.70;;;;;;4996748;28;20432;-87
2020/12/10 08:16:06;;;;;;;6.00;4.03;;;9.70;96.70;;;;;;4985662;28;20065;-86
2020/12/10 08:18:33;;;;;;;;;;;9.70;96.70;;;;;;5010868;28;20048;-87
2020/12/10 08:21:04;;;;;;;4.10;3.60;;;9.80;96.70;;;;;;5000849;28;19932;-86
2020/12/10 08:23:44;;;;;;;7.13;4.82;;;9.80;96.70;;;;;;5001720;28;20121;-86
2020/12/10 08:26:12;;;;;;;4.45;4.05;;;9.90;96.70;;;;;;5001716;28;20127;-87
2020/12/10 08:28:51;;;;;;;4.90;4.40;;;9.90;96.70;;;;;;5000726;28;20048;-87
2020/12/10 08:31:27;;;;;;;4.63;4.15;;;10.10;96.70;;;;;;5003454;28;20046;-87
2020/12/10 08:33:54;;;;;;;4.75;4.03;;;10.10;96.70;;;;;;5018775;28;20054;-87
2020/12/10 08:36:24;;;;;;;5.15;4.25;;;10.10;96.70;;;;;;5003686;28;20037;-88
2020/12/10 08:38:54;;;;;;;4.05;3.65;;;10.10;96.70;;;;;;5004031;28;20049;-87
2020/12/10 08:41:26;;;;;;;3.70;3.30;;;10.10;96.70;;;;;;5004233;28;20038;-88
2020/12/10 08:43:54;;;;;;;4.30;3.90;;;10.10;96.70;;;;;;5004632;28;20586;-87
2020/12/10 08:46:21;;;;;;;4.07;3.58;;;10.10;96.70;;;;;;5002945;28;20038;-88
2020/12/10 08:48:49;;;;;;;3.75;3.38;;;10.00;96.70;;;;;;5004504;28;20080;-86
2020/12/10 08:51:16;;;;;;;5.38;3.22;;;10.00;96.70;;;;;;5002168;28;20511;-86
2020/12/10 08:53:50;;;;;;;2.90;2.60;;;10.00;96.70;;;;;;5004949;28;20108;-87
2020/12/10 08:56:26;;;;;;;3.33;3.00;;;9.90;96.70;;;;;;5003263;28;20042;-87
2020/12/10 08:58:54;;;;;;;3.75;3.03;;;9.90;96.70;;;;;;5004602;28;20069;-87
2020/12/10 09:01:21;;;;;;;3.30;3.00;;;9.90;96.70;;;;;;4988131;28;20034;-86
2020/12/10 09:03:52;;;;;;;4.75;3.33;;;9.80;96.70;;;;;;4986502;28;20046;-87
2020/12/10 09:06:23;;;;;;;3.10;2.70;;;9.90;96.70;;;;;;5003753;28;20038;-86
2020/12/10 09:08:52;;;;;;;3.80;3.25;;;9.90;96.70;;;;;;5019598;28;20045;-88
2020/12/10 09:11:19;;;;;;;4.47;2.97;;;9.90;96.70;;;;;;5003016;28;20042;-88
2020/12/10 09:13:47;;;;;;;5.25;3.78;;;9.90;96.70;;;;;;5002169;28;20112;-88
2020/12/10 09:16:16;;;;;;;4.05;3.60;;;10.00;96.70;;;;;;5003192;28;20042;-87
2020/12/10 09:18:44;;;;;;;4.18;3.28;;;10.10;96.70;;;;;;5002302;28;20042;-87
2020/12/10 09:21:11;;;;;;;3.83;3.22;;;10.10;96.70;;;;;;5004444;28;20512;-87
2020/12/10 09:23:44;;;;;;;3.60;3.00;;;10.20;96.70;;;;;;5003732;28;20065;-87
2020/12/10 09:26:11;;;;;;;3.92;3.08;;;10.30;96.70;;;;;;4984532;28;20070;-87
2020/12/10 09:28:39;;;;;;;3.75;3.13;;;10.40;96.70;;;;;;5003750;28;20093;-87
2020/12/10 09:31:07;;;;;;;4.65;3.28;;;10.50;96.70;;;;;;4996096;28;20029;-87
2020/12/10 09:33:37;;;;;;;2.90;2.40;;;10.60;96.70;;;;;;5004093;28;20068;-87
2020/12/10 09:36:09;;;;;;;5.38;2.85;;;10.60;96.70;;;;;;4985098;28;20486;-89
2020/12/10 09:38:40;;;;;;;7.30;4.20;;;10.60;96.70;;;;;;5003910;28;20499;-88
2020/12/10 09:41:11;;;;;;;3.05;2.75;;;10.60;96.70;;;;;;5005215;28;20160;-88
2020/12/10 09:43:58;;;;;;;3.58;2.90;;;10.60;96.70;;;;;;5000390;28;20046;-87
2020/12/10 09:46:42;;;;;;;3.72;2.75;;;10.60;96.70;;;;;;5001230;28;20143;-87
2020/12/10 09:49:24;;;;;;;3.70;2.60;;;10.70;96.70;;;;;;5002612;28;20056;-88
2020/12/10 09:51:57;;;;;;;3.50;2.20;;;10.70;96.70;;;;;;5003460;28;20103;-88
2020/12/10 09:54:48;;;;;;;3.65;2.53;;;10.80;96.70;;;;;;5005123;28;20065;-87
2020/12/10 09:59:56;;;;;;;3.35;2.25;;;10.70;96.70;;;;;;5003771;28;20486;-87
2020/12/10 10:02:59;;;;;;;4.60;2.70;;;10.50;96.70;;;;;;5002574;28;20123;-88
2020/12/10 10:05:34;;;;;;;5.18;2.60;;;10.50;96.70;;;;;;4995995;28;20053;-87
2020/12/10 10:08:02;;;;;;;2.28;2.08;;;10.50;96.70;;;;;;4986535;28;20069;-87
2020/12/10 10:10:29;;;;;;;3.22;2.05;;;10.50;96.70;;;;;;4986586;28;20144;-87
2020/12/10 10:12:56;;;;;;;3.17;2.33;;;10.40;96.70;;;;;;4986564;28;20104;-87
2020/12/10 10:15:24;;;;;;;2.42;2.20;;;10.50;96.70;;;;;;5002633;28;20579;-87
2020/12/10 10:17:51;;;;;;;4.38;2.38;;;10.50;96.70;;;;;;4986981;28;20504;-87
2020/12/10 10:20:19;;;;;;;3.28;2.80;;;10.60;96.70;;;;;;5003355;28;20060;-87
2020/12/10 10:22:47;;;;;;;2.55;2.22;;;10.60;96.70;;;;;;4987847;28;20115;-87
2020/12/10 10:25:15;;;;;;;2.65;2.15;;;10.60;96.70;;;;;;5002550;28;20048;-87
2020/12/10 10:27:45;;;;;;;3.08;2.13;;;10.50;96.70;;;;;;5001706;28;20127;-86
2020/12/10 10:30:13;;;;;;;2.63;1.90;;;10.50;96.70;;;;;;5003930;28;20669;-87
2020/12/10 10:32:41;;;;;;;3.08;2.20;;;10.60;96.70;;;;;;4986158;28;20033;-87
2020/12/10 10:35:08;;;;;;;2.55;1.88;;;10.70;96.70;;;;;;5001114;28;20157;-87
2020/12/10 10:37:38;;;;;;;2.88;2.00;;;10.70;96.70;;;;;;5002043;28;20128;-87
2020/12/10 10:40:05;;;;;;;2.60;1.92;;;10.80;96.70;;;;;;4986771;28;20046;-87
2020/12/10 10:42:33;;;;;;;2.50;1.70;;;10.80;96.70;;;;;;5017894;28;20030;-87
2020/12/10 10:45:01;;;;;;;2.90;1.88;;;10.90;96.70;;;;;;5004117;28;20046;-86
2020/12/10 10:47:30;;;;;;;1.98;1.65;;;10.90;96.70;;;;;;5003015;28;20053;-87
2020/12/10 10:49:57;;;;;;;1.90;1.70;;;10.90;96.70;;;;;;5000698;28;20056;-87
2020/12/10 10:52:26;;;;;;;2.90;2.35;;;10.90;96.70;;;;;;5001766;28;20034;-86
2020/12/10 10:55:25;;;;;;;3.35;2.25;;;10.80;96.70;;;;;;5008911;28;20061;-88
2020/12/10 10:58:09;;;;;;;4.43;2.20;;;10.80;96.70;;;;;;4997760;28;20061;-86
2020/12/10 11:00:36;;;;;;;6.20;4.22;;;10.80;96.70;;;;;;5011369;28;20334;-86
2020/12/10 11:03:04;;;;;;;4.57;3.03;;;10.80;96.70;;;;;;5001294;28;20034;-86
2020/12/10 11:05:31;;;;;;;8.07;4.22;;;10.80;96.70;;;;;;4984662;28;20044;-87
2020/12/10 11:07:58;;;;;;;4.10;3.67;;;10.80;96.70;;;;;;5003131;28;20064;-87
2020/12/10 11:10:46;;;;;;;4.10;3.38;;;10.90;96.70;;;;;;5002374;28;20092;-87
2020/12/10 11:13:17;;;;;;;3.08;2.78;;;11.00;96.70;;;;;;5000776;28;20121;-86
2020/12/10 11:15:49;;;;;;;4.25;2.00;;;11.00;96.70;;;;;;5002136;28;20057;-87
2020/12/10 11:18:16;;;;;;;3.95;3.30;;;11.10;96.70;;;;;;5001694;28;20503;-83
2020/12/10 11:20:45;;;;;;;4.53;3.50;;;11.10;96.70;;;;;;4999779;28;20060;-87
2020/12/10 11:23:13;;;;;;;10.73;7.18;;;11.30;96.70;;;;;;5002724;28;20106;-87
2020/12/10 11:25:44;;;;;;;7.28;5.90;;;11.40;96.70;;;;;;5000835;28;20053;-86
2020/12/10 11:28:11;;;;;;;5.85;3.88;;;11.40;96.70;;;;;;5010711;28;20042;-87
2020/12/10 11:30:41;;;;;;;3.33;2.30;;;11.50;96.70;;;;;;4985695;28;20420;-86
2020/12/10 11:33:09;;;;;;;2.97;2.00;;;11.40;96.70;;;;;;5001620;28;20056;-87
2020/12/10 11:35:36;;;;;;;3.42;2.00;;;11.40;96.70;;;;;;4981658;28;20050;-87
2020/12/10 11:38:23;;;;;;;1.98;1.50;;;11.40;96.70;;;;;;5001521;28;20077;-87
2020/12/10 11:40:51;;;;;;;3.70;2.10;;;11.40;96.70;;;;;;4998442;28;20046;-87
2020/12/10 11:43:18;;;;;;;2.95;2.65;;;11.40;96.70;;;;;;5032963;28;20056;-87
2020/12/10 11:46:02;;;;;;;2.67;2.20;;;11.50;96.70;;;;;;5016944;28;20065;-88
2020/12/10 11:48:51;;;;;;;7.28;4.25;;;11.40;96.70;;;;;;5000289;28;20578;-86
2020/12/10 11:51:18;;;;;;;8.00;5.32;;;11.40;96.70;;;;;;4996756;28;20042;-87
2020/12/10 11:53:48;;;;;;;4.63;3.33;;;11.40;96.70;;;;;;4999525;28;20069;-87
2020/12/10 11:56:17;;;;;;;3.28;2.30;;;11.50;96.70;;;;;;5001401;28;20293;-87
2020/12/10 11:58:44;;;;;;;4.32;2.38;;;11.50;96.70;;;;;;5000130;28;20042;-87
2020/12/10 12:01:12;;;;;;;2.00;1.70;;;11.40;96.70;;;;;;5001853;28;20045;-87
2020/12/10 12:03:39;;;;;;;1.67;1.30;;;11.50;96.70;;;;;;5001770;28;20540;-87
2020/12/10 12:06:38;;;;;;;2.30;1.50;;;11.50;96.70;;;;;;5006540;28;20054;-87
2020/12/10 12:09:21;;;;;;;1.85;1.65;;;11.40;96.70;;;;;;5005258;28;20053;-86
2020/12/10 12:11:48;;;;;;;2.13;1.55;;;11.30;96.70;;;;;;5002572;28;20591;-87
2020/12/10 12:14:15;;;;;;;3.97;1.58;;;11.30;96.70;;;;;;4987631;28;20041;-87
2020/12/10 12:16:46;;;;;;;1.80;1.50;;;11.30;96.70;;;;;;4987700;28;20050;-87
2020/12/10 12:19:33;;;;;;;4.65;2.10;;;11.30;96.70;;;;;;5005413;28;20453;-86
2020/12/10 12:22:00;;;;;;;2.28;2.05;;;11.20;96.70;;;;;;4989068;28;20057;-87
2020/12/10 12:24:27;;;;;;;3.33;1.83;;;11.30;96.70;;;;;;5003411;28;20539;-86
2020/12/10 12:26:54;;;;;;;2.47;1.63;;;11.30;96.70;;;;;;5005870;28;20513;-87
2020/12/10 12:29:22;;;;;;;2.95;1.80;;;11.20;96.70;;;;;;5004741;28;20069;-86
2020/12/10 12:31:50;;;;;;;2.53;1.92;;;11.20;96.70;;;;;;5002772;28;20046;-87
2020/12/10 12:34:39;;;;;;;3.20;2.28;;;11.20;96.70;;;;;;5003842;28;20042;-87
2020/12/10 12:37:09;;;;;;;4.38;2.33;;;11.20;96.70;;;;;;4981654;28;20061;-87
2020/12/10 12:39:40;;;;;;;3.47;2.15;;;11.10;96.70;;;;;;5005494;28;20050;-86
2020/12/10 12:42:08;;;;;;;2.50;1.63;;;11.10;96.70;;;;;;5003801;28;20518;-86
2020/12/10 12:44:35;;;;;;;2.17;1.63;;;11.10;96.70;;;;;;5019352;28;20049;-86
2020/12/10 12:47:09;;;;;;;2.75;1.52;;;11.00;96.70;;;;;;5003571;28;20049;-87
2020/12/10 12:49:39;;;;;;;1.73;1.20;;;11.00;96.70;;;;;;5005380;28;20392;-87
2020/12/10 12:52:26;;;;;;;2.00;1.20;;;10.90;96.70;;;;;;5004242;28;20042;-87
2020/12/10 12:54:53;;;;;;;2.25;1.40;;;10.90;96.70;;;;;;4988731;28;20045;-87
2020/12/10 12:57:20;;;;;;;1.90;1.10;;;10.90;96.70;;;;;;4988802;28;20042;-87
2020/12/10 12:59:48;;;;;;;1.90;1.30;;;10.90;96.70;;;;;;5019384;28;20046;-86
2020/12/10 13:02:16;;;;;;;2.22;1.23;;;10.80;96.70;;;;;;5004429;28;20591;-87
2020/12/10 13:04:43;;;;;;;1.70;1.20;;;10.90;96.70;;;;;;5004565;28;20077;-87
2020/12/10 13:07:15;;;;;;;2.53;1.52;;;10.90;96.70;;;;;;5005000;28;20041;-88
2020/12/10 13:09:43;;;;;;;6.95;4.65;;;10.90;96.70;;;;;;5003883;28;20044;-87
2020/12/10 13:12:14;;;;;;;5.03;2.40;;;10.90;96.70;;;;;;4984870;28;20053;-86